Terminal Aerodrome Forecast
Issued by NWS

Home | Current Version | Previous Version | Text Only | Print | Product List | Glossary On
Versions: 1 2 3 4 5 6 7 8 9 10 11 12
000
FTUS45 KVEF 240500
TAFDAG
TAF
KDAG 240530Z 2406/2506 28010KT P6SM SKC
     FM241800 31010KT P6SM FEW250
     FM250200 26015KT P6SM FEW250=

USA.gov is the U.S. government's official web portal to all federal, state and local government web resources and services.